sensor_id;sensor_type;location;lat;lon;timestamp;pressure;altitude;pressure_sealevel;temperature;humidity
42297;BME280;72430;47.456;19.016;2023-09-19T00:43:09;99794.81;;;22.18;63.75
42297;BME280;72430;47.456;19.016;2023-09-19T00:46:11;99791.44;;;22.16;64.09
42297;BME280;72430;47.456;19.016;2023-09-19T00:49:14;99791.16;;;22.24;64.13
42297;BME280;72430;47.456;19.016;2023-09-19T00:52:17;99800.06;;;22.19;64.44
42297;BME280;72430;47.456;19.016;2023-09-19T00:55:22;99788.47;;;22.17;64.65
42297;BME280;72430;47.456;19.016;2023-09-19T00:58:25;99794.66;;;22.12;64.98
42297;BME280;72430;47.456;19.016;2023-09-19T01:01:27;99796.38;;;22.07;65.53
42297;BME280;72430;47.456;19.016;2023-09-19T01:04:30;99801.81;;;21.95;66.49
42297;BME280;72430;47.456;19.016;2023-09-19T01:07:32;99802.41;;;21.97;66.68
42297;BME280;72430;47.456;19.016;2023-09-19T01:10:52;99803.16;;;21.85;68.07
42297;BME280;72430;47.456;19.016;2023-09-19T01:14:22;99793.03;;;21.86;69.63
42297;BME280;72430;47.456;19.016;2023-09-19T01:18:08;99793.91;;;21.61;70.05
42297;BME280;72430;47.456;19.016;2023-09-19T01:31:06;99791.03;;;21.49;73.08
42297;BME280;72430;47.456;19.016;2023-09-19T01:34:11;99787.19;;;21.31;73.68
42297;BME280;72430;47.456;19.016;2023-09-19T01:37:13;99788.03;;;21.32;74.72
42297;BME280;72430;47.456;19.016;2023-09-19T01:40:19;99775.91;;;21.46;73.77
42297;BME280;72430;47.456;19.016;2023-09-19T01:43:32;99773.97;;;21.28;74.85
42297;BME280;72430;47.456;19.016;2023-09-19T01:46:41;99775.47;;;21.24;75.12
42297;BME280;72430;47.456;19.016;2023-09-19T01:49:57;99774.22;;;21.20;74.88
42297;BME280;72430;47.456;19.016;2023-09-19T01:53:26;99789.28;;;21.04;75.76
42297;BME280;72430;47.456;19.016;2023-09-19T01:56:40;99776.13;;;20.94;75.87
42297;BME280;72430;47.456;19.016;2023-09-19T02:00:01;99778.56;;;21.02;74.95
42297;BME280;72430;47.456;19.016;2023-09-19T02:03:09;99788.13;;;20.93;76.50
42297;BME280;72430;47.456;19.016;2023-09-19T02:06:16;99788.38;;;20.85;76.92
42297;BME280;72430;47.456;19.016;2023-09-19T02:09:19;99772.19;;;20.76;77.46
42297;BME280;72430;47.456;19.016;2023-09-19T02:12:21;99784.63;;;20.72;77.83
42297;BME280;72430;47.456;19.016;2023-09-19T02:15:22;99781.97;;;20.98;76.43
42297;BME280;72430;47.456;19.016;2023-09-19T02:18:24;99776.47;;;20.65;77.61
42297;BME280;72430;47.456;19.016;2023-09-19T02:21:28;99780.00;;;20.73;78.24
42297;BME280;72430;47.456;19.016;2023-09-19T02:24:33;99771.25;;;20.57;79.42
42297;BME280;72430;47.456;19.016;2023-09-19T02:27:36;99772.22;;;20.70;78.56
42297;BME280;72430;47.456;19.016;2023-09-19T02:30:38;99769.56;;;20.56;79.01
42297;BME280;72430;47.456;19.016;2023-09-19T02:33:40;99785.59;;;20.46;79.25
42297;BME280;72430;47.456;19.016;2023-09-19T02:36:43;99789.00;;;20.41;80.24
42297;BME280;72430;47.456;19.016;2023-09-19T02:39:45;99786.13;;;20.22;81.80
42297;BME280;72430;47.456;19.016;2023-09-19T02:42:48;99782.16;;;20.18;82.34
42297;BME280;72430;47.456;19.016;2023-09-19T02:45:51;99788.69;;;20.10;81.69
42297;BME280;72430;47.456;19.016;2023-09-19T02:48:56;99790.81;;;20.08;82.70
42297;BME280;72430;47.456;19.016;2023-09-19T02:51:58;99786.59;;;20.12;82.96
42297;BME280;72430;47.456;19.016;2023-09-19T02:55:01;99783.22;;;20.10;83.00
42297;BME280;72430;47.456;19.016;2023-09-19T02:58:03;99773.94;;;20.25;82.04
42297;BME280;72430;47.456;19.016;2023-09-19T03:01:10;99779.00;;;20.21;82.00
42297;BME280;72430;47.456;19.016;2023-09-19T03:04:15;99771.88;;;20.14;82.45
42297;BME280;72430;47.456;19.016;2023-09-19T03:07:21;99772.16;;;20.44;82.20
42297;BME280;72430;47.456;19.016;2023-09-19T03:10:23;99778.09;;;20.73;80.59
42297;BME280;72430;47.456;19.016;2023-09-19T03:13:26;99781.69;;;20.74;79.08
42297;BME280;72430;47.456;19.016;2023-09-19T03:16:28;99792.91;;;20.59;79.56
42297;BME280;72430;47.456;19.016;2023-09-19T03:19:31;99785.97;;;20.56;80.65
42297;BME280;72430;47.456;19.016;2023-09-19T03:22:35;99769.19;;;20.52;80.85
42297;BME280;72430;47.456;19.016;2023-09-19T03:25:37;99776.31;;;20.53;79.79
42297;BME280;72430;47.456;19.016;2023-09-19T03:28:38;99779.13;;;20.40;80.98
42297;BME280;72430;47.456;19.016;2023-09-19T03:31:41;99787.88;;;20.10;81.82
42297;BME280;72430;47.456;19.016;2023-09-19T03:34:43;99780.22;;;20.25;81.31
42297;BME280;72430;47.456;19.016;2023-09-19T03:37:45;99777.56;;;20.12;82.22
42297;BME280;72430;47.456;19.016;2023-09-19T03:40:47;99785.16;;;20.03;83.81
42297;BME280;72430;47.456;19.016;2023-09-19T03:43:50;99764.75;;;19.99;83.60
42297;BME280;72430;47.456;19.016;2023-09-19T03:46:52;99777.97;;;20.09;83.67
42297;BME280;72430;47.456;19.016;2023-09-19T03:49:54;99783.66;;;20.07;83.43
42297;BME280;72430;47.456;19.016;2023-09-19T03:52:56;99782.59;;;20.08;83.43
42297;BME280;72430;47.456;19.016;2023-09-19T03:55:58;99784.88;;;20.25;82.26
42297;BME280;72430;47.456;19.016;2023-09-19T03:59:01;99780.09;;;20.07;82.65
42297;BME280;72430;47.456;19.016;2023-09-19T04:02:04;99782.16;;;20.18;82.50
42297;BME280;72430;47.456;19.016;2023-09-19T04:05:13;99790.47;;;20.37;84.19
42297;BME280;72430;47.456;19.016;2023-09-19T04:08:15;99792.81;;;20.33;82.67
42297;BME280;72430;47.456;19.016;2023-09-19T04:11:17;99787.34;;;20.40;81.41
42297;BME280;72430;47.456;19.016;2023-09-19T04:14:19;99788.38;;;20.39;81.99
42297;BME280;72430;47.456;19.016;2023-09-19T04:17:20;99798.03;;;20.42;81.41
42297;BME280;72430;47.456;19.016;2023-09-19T04:20:22;99803.31;;;20.36;81.60
42297;BME280;72430;47.456;19.016;2023-09-19T04:23:25;99790.09;;;20.26;83.52
42297;BME280;72430;47.456;19.016;2023-09-19T04:26:26;99804.81;;;20.32;83.13
42297;BME280;72430;47.456;19.016;2023-09-19T04:29:28;99803.13;;;20.31;83.35
42297;BME280;72430;47.456;19.016;2023-09-19T04:32:30;99814.69;;;20.26;83.88
42297;BME280;72430;47.456;19.016;2023-09-19T04:35:34;99816.59;;;20.33;82.90
42297;BME280;72430;47.456;19.016;2023-09-19T04:38:36;99826.69;;;20.32;83.16
42297;BME280;72430;47.456;19.016;2023-09-19T04:41:38;99817.88;;;20.30;83.73
42297;BME280;72430;47.456;19.016;2023-09-19T04:44:42;99826.22;;;20.35;84.06
42297;BME280;72430;47.456;19.016;2023-09-19T04:47:44;99839.50;;;20.32;84.23
42297;BME280;72430;47.456;19.016;2023-09-19T04:50:48;99843.06;;;20.39;84.16
42297;BME280;72430;47.456;19.016;2023-09-19T04:53:50;99830.63;;;20.43;81.62
42297;BME280;72430;47.456;19.016;2023-09-19T04:56:52;99849.34;;;20.39;81.81
42297;BME280;72430;47.456;19.016;2023-09-19T04:59:53;99839.69;;;20.37;81.22
42297;BME280;72430;47.456;19.016;2023-09-19T05:02:56;99853.56;;;20.42;80.42
42297;BME280;72430;47.456;19.016;2023-09-19T05:05:58;99855.22;;;20.43;81.74
42297;BME280;72430;47.456;19.016;2023-09-19T05:09:00;99862.63;;;20.36;81.72
42297;BME280;72430;47.456;19.016;2023-09-19T05:12:02;99867.06;;;20.17;81.73
42297;BME280;72430;47.456;19.016;2023-09-19T05:15:06;99865.19;;;20.10;82.53
42297;BME280;72430;47.456;19.016;2023-09-19T05:18:10;99876.78;;;19.99;83.25
42297;BME280;72430;47.456;19.016;2023-09-19T05:21:12;99882.03;;;19.87;82.57
42297;BME280;72430;47.456;19.016;2023-09-19T05:24:14;99891.28;;;19.99;81.29
42297;BME280;72430;47.456;19.016;2023-09-19T05:27:19;99888.34;;;19.81;83.61
42297;BME280;72430;47.456;19.016;2023-09-19T05:30:22;99903.03;;;19.80;82.92
42297;BME280;72430;47.456;19.016;2023-09-19T05:33:24;99894.81;;;19.66;82.88
42297;BME280;72430;47.456;19.016;2023-09-19T05:36:26;99896.72;;;19.59;83.71
42297;BME280;72430;47.456;19.016;2023-09-19T05:39:28;99893.38;;;19.57;82.98
42297;BME280;72430;47.456;19.016;2023-09-19T05:42:30;99889.16;;;19.68;83.46
42297;BME280;72430;47.456;19.016;2023-09-19T05:45:32;99892.13;;;19.59;84.02
42297;BME280;72430;47.456;19.016;2023-09-19T05:48:34;99889.59;;;19.71;83.04
42297;BME280;72430;47.456;19.016;2023-09-19T05:51:35;99896.94;;;19.57;82.84
42297;BME280;72430;47.456;19.016;2023-09-19T05:54:37;99904.06;;;19.52;83.27
42297;BME280;72430;47.456;19.016;2023-09-19T05:57:39;99909.72;;;19.43;83.10
42297;BME280;72430;47.456;19.016;2023-09-19T06:00:42;99903.44;;;19.43;83.38
42297;BME280;72430;47.456;19.016;2023-09-19T06:03:46;99903.00;;;19.46;83.41
42297;BME280;72430;47.456;19.016;2023-09-19T06:06:48;99903.63;;;19.28;83.11
42297;BME280;72430;47.456;19.016;2023-09-19T06:09:50;99910.31;;;19.25;84.31
42297;BME280;72430;47.456;19.016;2023-09-19T06:12:54;99907.41;;;19.34;83.87
42297;BME280;72430;47.456;19.016;2023-09-19T06:15:56;99908.66;;;19.31;83.68
42297;BME280;72430;47.456;19.016;2023-09-19T06:18:58;99908.88;;;19.36;84.30
42297;BME280;72430;47.456;19.016;2023-09-19T06:22:01;99911.81;;;19.35;83.49
42297;BME280;72430;47.456;19.016;2023-09-19T06:25:03;99913.25;;;19.24;84.69
42297;BME280;72430;47.456;19.016;2023-09-19T06:28:09;99920.00;;;19.28;84.94
42297;BME280;72430;47.456;19.016;2023-09-19T06:31:13;99921.41;;;19.17;84.85
42297;BME280;72430;47.456;19.016;2023-09-19T06:34:15;99917.25;;;19.28;86.03
42297;BME280;72430;47.456;19.016;2023-09-19T06:37:17;99930.91;;;19.28;84.91
42297;BME280;72430;47.456;19.016;2023-09-19T06:40:19;99924.16;;;19.24;85.24
42297;BME280;72430;47.456;19.016;2023-09-19T06:43:22;99929.44;;;19.32;85.29
42297;BME280;72430;47.456;19.016;2023-09-19T06:46:25;99936.97;;;19.23;85.37
42297;BME280;72430;47.456;19.016;2023-09-19T06:49:27;99930.25;;;19.26;86.49
42297;BME280;72430;47.456;19.016;2023-09-19T06:52:31;99946.84;;;19.24;86.32
42297;BME280;72430;47.456;19.016;2023-09-19T06:55:34;99948.50;;;19.18;86.26
42297;BME280;72430;47.456;19.016;2023-09-19T06:58:37;99955.13;;;19.02;89.08
42297;BME280;72430;47.456;19.016;2023-09-19T07:01:40;99961.84;;;19.00;89.58
42297;BME280;72430;47.456;19.016;2023-09-19T07:04:43;99962.47;;;19.02;90.00
42297;BME280;72430;47.456;19.016;2023-09-19T07:07:45;99967.91;;;19.02;89.77
42297;BME280;72430;47.456;19.016;2023-09-19T07:10:47;99974.19;;;18.96;90.77
42297;BME280;72430;47.456;19.016;2023-09-19T07:13:54;99985.91;;;18.83;92.38
42297;BME280;72430;47.456;19.016;2023-09-19T07:16:56;99984.28;;;18.95;92.45
42297;BME280;72430;47.456;19.016;2023-09-19T07:19:58;99985.47;;;18.86;93.36
42297;BME280;72430;47.456;19.016;2023-09-19T07:23:01;99984.94;;;18.62;95.80
42297;BME280;72430;47.456;19.016;2023-09-19T07:26:03;99987.91;;;18.67;94.39
42297;BME280;72430;47.456;19.016;2023-09-19T07:29:06;99982.16;;;18.55;95.12
42297;BME280;72430;47.456;19.016;2023-09-19T07:32:10;99976.69;;;18.55;96.78
42297;BME280;72430;47.456;19.016;2023-09-19T07:35:13;99986.97;;;18.53;95.26
42297;BME280;72430;47.456;19.016;2023-09-19T07:38:16;99992.88;;;18.57;95.66
42297;BME280;72430;47.456;19.016;2023-09-19T07:41:19;100001.69;;;18.59;96.60
42297;BME280;72430;47.456;19.016;2023-09-19T07:44:22;100010.91;;;18.58;96.16
42297;BME280;72430;47.456;19.016;2023-09-19T07:47:24;100014.53;;;18.65;96.78
42297;BME280;72430;47.456;19.016;2023-09-19T07:50:26;100020.88;;;18.72;96.20
42297;BME280;72430;47.456;19.016;2023-09-19T07:53:28;100020.31;;;18.90;97.70
42297;BME280;72430;47.456;19.016;2023-09-19T07:56:30;100037.84;;;18.68;96.38
42297;BME280;72430;47.456;19.016;2023-09-19T07:59:34;100049.81;;;18.73;97.73
42297;BME280;72430;47.456;19.016;2023-09-19T08:02:37;100045.16;;;18.67;97.19
42297;BME280;72430;47.456;19.016;2023-09-19T08:05:43;100053.53;;;18.65;97.70
42297;BME280;72430;47.456;19.016;2023-09-19T08:08:45;100059.47;;;18.76;96.55
42297;BME280;72430;47.456;19.016;2023-09-19T08:11:47;100061.72;;;18.65;97.11
42297;BME280;72430;47.456;19.016;2023-09-19T08:14:49;100062.59;;;18.73;96.95
42297;BME280;72430;47.456;19.016;2023-09-19T08:17:52;100063.38;;;18.67;97.50
42297;BME280;72430;47.456;19.016;2023-09-19T08:20:54;100073.06;;;18.69;97.74
42297;BME280;72430;47.456;19.016;2023-09-19T08:23:56;100074.91;;;18.62;98.47
42297;BME280;72430;47.456;19.016;2023-09-19T08:26:58;100074.16;;;18.75;98.79
42297;BME280;72430;47.456;19.016;2023-09-19T08:30:00;100076.47;;;18.78;96.54
42297;BME280;72430;47.456;19.016;2023-09-19T08:33:02;100077.88;;;18.67;97.02
42297;BME280;72430;47.456;19.016;2023-09-19T08:36:08;100080.00;;;18.72;98.59
42297;BME280;72430;47.456;19.016;2023-09-19T08:39:11;100095.13;;;18.74;98.78
42297;BME280;72430;47.456;19.016;2023-09-19T08:42:13;100109.94;;;18.94;98.18
42297;BME280;72430;47.456;19.016;2023-09-19T08:45:16;100108.81;;;18.81;97.55
42297;BME280;72430;47.456;19.016;2023-09-19T08:48:26;100133.63;;;18.93;97.79
42297;BME280;72430;47.456;19.016;2023-09-19T08:51:39;100132.69;;;18.79;98.70
42297;BME280;72430;47.456;19.016;2023-09-19T08:54:46;100139.06;;;18.86;98.48
42297;BME280;72430;47.456;19.016;2023-09-19T08:57:52;100142.03;;;18.91;100.00
42297;BME280;72430;47.456;19.016;2023-09-19T09:01:00;100149.19;;;18.99;99.72
42297;BME280;72430;47.456;19.016;2023-09-19T09:04:08;100141.03;;;18.99;99.76
42297;BME280;72430;47.456;19.016;2023-09-19T09:07:14;100140.63;;;19.02;99.97
42297;BME280;72430;47.456;19.016;2023-09-19T09:10:18;100121.81;;;19.08;100.00
42297;BME280;72430;47.456;19.016;2023-09-19T09:13:24;100106.94;;;19.17;100.00
42297;BME280;72430;47.456;19.016;2023-09-19T09:16:30;100085.81;;;19.26;100.00
42297;BME280;72430;47.456;19.016;2023-09-19T09:19:32;100084.41;;;19.43;100.00
42297;BME280;72430;47.456;19.016;2023-09-19T09:22:34;100063.69;;;19.63;100.00
42297;BME280;72430;47.456;19.016;2023-09-19T09:28:52;100057.66;;;19.81;100.00
42297;BME280;72430;47.456;19.016;2023-09-19T09:32:22;100048.16;;;19.70;100.00
42297;BME280;72430;47.456;19.016;2023-09-19T09:35:24;100055.34;;;19.91;98.47
42297;BME280;72430;47.456;19.016;2023-09-19T09:38:28;100071.16;;;20.03;99.01
42297;BME280;72430;47.456;19.016;2023-09-19T09:41:36;100076.22;;;19.99;98.49
42297;BME280;72430;47.456;19.016;2023-09-19T09:44:41;100090.75;;;20.06;99.71
42297;BME280;72430;47.456;19.016;2023-09-19T09:47:48;100103.91;;;19.89;98.19
42297;BME280;72430;47.456;19.016;2023-09-19T09:50:59;100115.03;;;19.88;97.99
42297;BME280;72430;47.456;19.016;2023-09-19T09:54:18;100115.63;;;19.69;96.90
42297;BME280;72430;47.456;19.016;2023-09-19T09:57:24;100106.22;;;19.85;96.55
42297;BME280;72430;47.456;19.016;2023-09-19T10:00:27;100099.81;;;20.34;99.00
42297;BME280;72430;47.456;19.016;2023-09-19T10:03:43;100082.56;;;20.53;97.00
42297;BME280;72430;47.456;19.016;2023-09-19T10:06:47;100102.53;;;20.81;93.76
42297;BME280;72430;47.456;19.016;2023-09-19T10:09:53;100102.09;;;20.71;95.31
42297;BME280;72430;47.456;19.016;2023-09-19T10:13:01;100100.63;;;20.68;93.06
42297;BME280;72430;47.456;19.016;2023-09-19T10:16:06;100106.75;;;20.90;91.91
42297;BME280;72430;47.456;19.016;2023-09-19T10:19:23;100101.28;;;20.90;92.63
42297;BME280;72430;47.456;19.016;2023-09-19T10:22:31;100102.75;;;20.73;91.29
42297;BME280;72430;47.456;19.016;2023-09-19T10:25:38;100106.34;;;20.87;91.66
42297;BME280;72430;47.456;19.016;2023-09-19T10:28:41;100124.00;;;20.91;90.90
42297;BME280;72430;47.456;19.016;2023-09-19T10:31:47;100121.91;;;20.93;89.71
42297;BME280;72430;47.456;19.016;2023-09-19T10:34:49;100127.16;;;21.01;90.62
42297;BME280;72430;47.456;19.016;2023-09-19T10:37:55;100118.97;;;20.68;88.72
42297;BME280;72430;47.456;19.016;2023-09-19T10:41:01;100121.91;;;20.93;90.75
42297;BME280;72430;47.456;19.016;2023-09-19T10:44:04;100124.22;;;21.10;90.92
42297;BME280;72430;47.456;19.016;2023-09-19T10:47:07;100124.22;;;20.96;89.57
42297;BME280;72430;47.456;19.016;2023-09-19T10:50:09;100133.06;;;20.98;89.07
42297;BME280;72430;47.456;19.016;2023-09-19T10:53:20;100130.31;;;21.05;88.94
42297;BME280;72430;47.456;19.016;2023-09-19T10:56:30;100136.19;;;21.15;90.85
42297;BME280;72430;47.456;19.016;2023-09-19T10:59:34;100139.13;;;21.21;88.59
42297;BME280;72430;47.456;19.016;2023-09-19T11:02:37;100150.88;;;21.35;89.60
42297;BME280;72430;47.456;19.016;2023-09-19T11:05:40;100147.03;;;21.49;87.73
42297;BME280;72430;47.456;19.016;2023-09-19T11:19:00;100149.22;;;24.02;78.50
42297;BME280;72430;47.456;19.016;2023-09-19T11:22:06;100145.88;;;24.30;70.77
42297;BME280;72430;47.456;19.016;2023-09-19T11:28:34;100131.13;;;24.67;65.31
42297;BME280;72430;47.456;19.016;2023-09-19T11:31:42;100129.31;;;25.56;67.03
42297;BME280;72430;47.456;19.016;2023-09-19T11:34:48;100141.03;;;26.05;58.30
42297;BME280;72430;47.456;19.016;2023-09-19T11:44:33;100117.25;;;27.18;54.77
42297;BME280;72430;47.456;19.016;2023-09-19T11:47:37;100125.25;;;26.17;54.96
42297;BME280;72430;47.456;19.016;2023-09-19T11:50:43;100116.72;;;27.21;54.33
42297;BME280;72430;47.456;19.016;2023-09-19T11:53:46;100120.84;;;28.41;48.37
42297;BME280;72430;47.456;19.016;2023-09-19T11:56:52;100117.22;;;28.73;48.15
42297;BME280;72430;47.456;19.016;2023-09-19T11:59:55;100109.25;;;28.82;47.36
42297;BME280;72430;47.456;19.016;2023-09-19T12:03:09;100112.19;;;29.03;45.12
42297;BME280;72430;47.456;19.016;2023-09-19T12:06:13;100104.31;;;29.43;46.23
42297;BME280;72430;47.456;19.016;2023-09-19T12:09:19;100107.03;;;30.07;45.22
42297;BME280;72430;47.456;19.016;2023-09-19T12:12:26;100114.59;;;30.17;43.35
42297;BME280;72430;47.456;19.016;2023-09-19T12:15:33;100108.19;;;29.31;43.05
42297;BME280;72430;47.456;19.016;2023-09-19T12:18:40;100113.47;;;30.18;43.31
42297;BME280;72430;47.456;19.016;2023-09-19T12:21:43;100109.50;;;31.17;40.28
42297;BME280;72430;47.456;19.016;2023-09-19T12:24:45;100109.94;;;33.30;38.35
42297;BME280;72430;47.456;19.016;2023-09-19T12:27:49;100118.38;;;33.00;36.30
42297;BME280;72430;47.456;19.016;2023-09-19T12:30:55;100124.63;;;32.87;36.59
42297;BME280;72430;47.456;19.016;2023-09-19T12:33:57;100128.13;;;31.27;37.42
42297;BME280;72430;47.456;19.016;2023-09-19T12:37:14;100133.16;;;31.04;37.63
42297;BME280;72430;47.456;19.016;2023-09-19T12:40:39;100124.16;;;33.09;36.48
42297;BME280;72430;47.456;19.016;2023-09-19T12:43:44;100139.03;;;34.30;33.63
42297;BME280;72430;47.456;19.016;2023-09-19T12:46:46;100120.75;;;34.57;32.98
42297;BME280;72430;47.456;19.016;2023-09-19T12:50:15;100128.63;;;35.16;31.75
42297;BME280;72430;47.456;19.016;2023-09-19T12:53:26;100130.06;;;35.42;30.75
42297;BME280;72430;47.456;19.016;2023-09-19T12:56:39;100123.22;;;35.48;31.43
42297;BME280;72430;47.456;19.016;2023-09-19T12:59:46;100128.72;;;36.41;30.14
42297;BME280;72430;47.456;19.016;2023-09-19T13:06:36;100133.41;;;35.95;29.46
42297;BME280;72430;47.456;19.016;2023-09-19T13:10:03;100132.56;;;35.15;30.41
42297;BME280;72430;47.456;19.016;2023-09-19T13:13:22;100127.34;;;35.51;30.11
42297;BME280;72430;47.456;19.016;2023-09-19T13:16:29;100139.78;;;34.36;30.88
42297;BME280;72430;47.456;19.016;2023-09-19T13:19:44;100146.59;;;32.24;32.61
42297;BME280;72430;47.456;19.016;2023-09-19T13:22:51;100133.88;;;31.52;36.57
42297;BME280;72430;47.456;19.016;2023-09-19T13:26:00;100148.50;;;30.76;38.57
42297;BME280;72430;47.456;19.016;2023-09-19T13:29:01;100140.13;;;30.19;40.79
42297;BME280;72430;47.456;19.016;2023-09-19T13:32:04;100135.03;;;29.84;39.39
42297;BME280;72430;47.456;19.016;2023-09-19T13:35:07;100144.53;;;29.35;41.84
42297;BME280;72430;47.456;19.016;2023-09-19T13:38:11;100139.56;;;31.00;39.28
42297;BME280;72430;47.456;19.016;2023-09-19T13:41:14;100149.44;;;32.13;36.21
42297;BME280;72430;47.456;19.016;2023-09-19T13:44:16;100149.28;;;32.74;34.43
42297;BME280;72430;47.456;19.016;2023-09-19T13:47:19;100152.69;;;32.66;35.31
42297;BME280;72430;47.456;19.016;2023-09-19T13:50:26;100151.91;;;32.60;34.73
42297;BME280;72430;47.456;19.016;2023-09-19T13:53:30;100161.72;;;33.17;33.89
42297;BME280;72430;47.456;19.016;2023-09-19T13:56:32;100155.63;;;33.64;32.67
42297;BME280;72430;47.456;19.016;2023-09-19T13:59:35;100154.56;;;33.98;32.61
42297;BME280;72430;47.456;19.016;2023-09-19T14:02:37;100157.03;;;34.05;32.22
42297;BME280;72430;47.456;19.016;2023-09-19T14:05:41;100155.06;;;34.05;32.19
42297;BME280;72430;47.456;19.016;2023-09-19T14:08:44;100165.66;;;31.35;34.36
42297;BME280;72430;47.456;19.016;2023-09-19T14:11:51;100172.53;;;30.08;37.09
42297;BME280;72430;47.456;19.016;2023-09-19T14:14:54;100170.69;;;30.55;38.83
42297;BME280;72430;47.456;19.016;2023-09-19T14:17:58;100160.09;;;31.25;37.00
42297;BME280;72430;47.456;19.016;2023-09-19T14:21:04;100147.53;;;31.53;36.90
42297;BME280;72430;47.456;19.016;2023-09-19T14:24:06;100159.28;;;30.51;37.46
42297;BME280;72430;47.456;19.016;2023-09-19T14:27:11;100158.56;;;29.71;38.54
42297;BME280;72430;47.456;19.016;2023-09-19T14:30:13;100150.66;;;31.15;38.50
42297;BME280;72430;47.456;19.016;2023-09-19T14:33:16;100154.06;;;31.78;37.03
42297;BME280;72430;47.456;19.016;2023-09-19T14:36:18;100156.13;;;32.12;36.96
42297;BME280;72430;47.456;19.016;2023-09-19T14:39:20;100144.41;;;32.55;34.59
42297;BME280;72430;47.456;19.016;2023-09-19T14:42:22;100150.06;;;32.50;34.68
42297;BME280;72430;47.456;19.016;2023-09-19T14:45:24;100142.72;;;32.60;34.56
42297;BME280;72430;47.456;19.016;2023-09-19T14:48:27;100143.09;;;32.77;34.54
42297;BME280;72430;47.456;19.016;2023-09-19T14:51:29;100142.78;;;32.84;33.25
42297;BME280;72430;47.456;19.016;2023-09-19T14:54:31;100146.53;;;31.79;33.92
42297;BME280;72430;47.456;19.016;2023-09-19T14:57:33;100153.59;;;31.66;34.50
42297;BME280;72430;47.456;19.016;2023-09-19T15:00:35;100154.06;;;31.88;33.80
42297;BME280;72430;47.456;19.016;2023-09-19T15:03:38;100157.94;;;31.87;34.71
42297;BME280;72430;47.456;19.016;2023-09-19T15:06:44;100152.53;;;31.46;34.84
42297;BME280;72430;47.456;19.016;2023-09-19T15:09:46;100163.47;;;30.95;34.97
42297;BME280;72430;47.456;19.016;2023-09-19T15:12:49;100164.91;;;30.77;35.63
42297;BME280;72430;47.456;19.016;2023-09-19T15:15:51;100172.91;;;30.48;36.52
42297;BME280;72430;47.456;19.016;2023-09-19T15:18:53;100174.88;;;30.52;36.35
42297;BME280;72430;47.456;19.016;2023-09-19T15:21:56;100170.97;;;30.38;36.42
42297;BME280;72430;47.456;19.016;2023-09-19T15:24:59;100177.63;;;30.32;37.03
42297;BME280;72430;47.456;19.016;2023-09-19T15:28:01;100182.81;;;30.02;37.43
42297;BME280;72430;47.456;19.016;2023-09-19T15:31:12;100186.41;;;29.39;38.22
42297;BME280;72430;47.456;19.016;2023-09-19T15:34:14;100180.34;;;29.47;37.48
42297;BME280;72430;47.456;19.016;2023-09-19T15:37:17;100185.81;;;29.31;38.25
42297;BME280;72430;47.456;19.016;2023-09-19T15:40:20;100182.69;;;28.85;38.96
42297;BME280;72430;47.456;19.016;2023-09-19T15:43:25;100192.47;;;28.65;39.42
42297;BME280;72430;47.456;19.016;2023-09-19T15:46:28;100185.59;;;28.67;40.08
42297;BME280;72430;47.456;19.016;2023-09-19T15:49:31;100183.56;;;28.58;40.61
42297;BME280;72430;47.456;19.016;2023-09-19T15:52:33;100198.06;;;28.15;42.43
42297;BME280;72430;47.456;19.016;2023-09-19T15:55:39;100188.16;;;28.19;41.98
42297;BME280;72430;47.456;19.016;2023-09-19T15:58:43;100187.03;;;27.93;42.96
42297;BME280;72430;47.456;19.016;2023-09-19T16:01:45;100187.13;;;27.19;45.94
42297;BME280;72430;47.456;19.016;2023-09-19T16:04:47;100190.22;;;26.88;45.48
42297;BME280;72430;47.456;19.016;2023-09-19T16:07:49;100197.22;;;27.08;44.54
42297;BME280;72430;47.456;19.016;2023-09-19T16:10:51;100210.13;;;26.73;47.65
42297;BME280;72430;47.456;19.016;2023-09-19T16:13:53;100207.03;;;26.52;46.71
42297;BME280;72430;47.456;19.016;2023-09-19T16:16:56;100210.44;;;26.01;50.35
42297;BME280;72430;47.456;19.016;2023-09-19T16:20:01;100205.50;;;25.74;53.09
42297;BME280;72430;47.456;19.016;2023-09-19T16:23:03;100199.28;;;25.43;51.21
42297;BME280;72430;47.456;19.016;2023-09-19T16:26:07;100201.69;;;25.04;51.82
42297;BME280;72430;47.456;19.016;2023-09-19T16:29:10;100196.53;;;24.84;53.35
42297;BME280;72430;47.456;19.016;2023-09-19T16:32:13;100202.91;;;24.65;56.96
42297;BME280;72430;47.456;19.016;2023-09-19T16:35:15;100211.63;;;24.50;58.60
42297;BME280;72430;47.456;19.016;2023-09-19T16:38:17;100208.59;;;23.91;59.50
42297;BME280;72430;47.456;19.016;2023-09-19T16:41:20;100208.59;;;23.91;59.72
42297;BME280;72430;47.456;19.016;2023-09-19T16:44:22;100216.16;;;23.77;60.66
42297;BME280;72430;47.456;19.016;2023-09-19T16:47:24;100214.78;;;23.49;62.77
42297;BME280;72430;47.456;19.016;2023-09-19T16:50:25;100221.34;;;23.22;62.75
42297;BME280;72430;47.456;19.016;2023-09-19T16:53:28;100220.56;;;23.15;64.76
42297;BME280;72430;47.456;19.016;2023-09-19T16:56:30;100226.94;;;22.83;65.00
42297;BME280;72430;47.456;19.016;2023-09-19T16:59:38;100231.97;;;22.61;67.31
42297;BME280;72430;47.456;19.016;2023-09-19T17:02:40;100232.28;;;22.39;68.25
42297;BME280;72430;47.456;19.016;2023-09-19T17:05:42;100240.34;;;22.27;68.19
42297;BME280;72430;47.456;19.016;2023-09-19T17:08:45;100240.28;;;21.95;70.10
42297;BME280;72430;47.456;19.016;2023-09-19T17:11:48;100247.44;;;21.89;69.78
42297;BME280;72430;47.456;19.016;2023-09-19T17:14:50;100254.91;;;21.75;70.84